Big Stone Express — WCX9178 — position and weather

sailwx.info

Track history (hours):
 
Tides and Currents Weather Stations Pressure Air Temp Water Temp Dewpoint Dewpoint Depression Visibility Wind Speed Wind Dir Waves Ship Positions

Big Stone Express

Owner: DELAWARE BAY LAUNCH SERVICE, MILFORD, DE. More information available from US FCC via Universal Licensing System and Coast Guard Vessel Documentation Center.

Last reported at 2017-Sep-21 14:02 UTC. Time now 2017-Sep-21 15:54 UTC.
Position N 38°56' W 075°19'.

Length 25 m; draft 2 m.

MMSI: 36708110.

Date/timePositionNaut miles runAvg speedWind from/ knotsBaromVisibWave heightAir tempDewpointWater temp
2017-Sep-21 14:02N 38°56' W 075°19'0 0.0
2017-Sep-21 13:51N 38°56' W 075°19'0 0.0
2017-Sep-21 13:23N 38°56' W 075°19'0 0.0
2017-Sep-21 13:00N 38°56' W 075°19'0 0.0
2017-Sep-21 12:30N 38°56' W 075°19'0 0.0
2017-Sep-21 12:00N 38°56' W 075°19'0 0.0
2017-Sep-21 11:30N 38°56' W 075°19'0 0.0
2017-Sep-21 11:00N 38°56' W 075°19'0 0.0
2017-Sep-21 10:30N 38°56' W 075°19'0 0.0
2017-Sep-21 10:00N 38°56' W 075°19'0 0.0
2017-Sep-21 09:30N 38°56' W 075°19'0 0.0
2017-Sep-21 09:00N 38°56' W 075°19'0 0.0
2017-Sep-21 08:21N 38°56' W 075°19'0 0.0
2017-Sep-21 08:00N 38°56' W 075°19'0 0.0
2017-Sep-21 07:22N 38°56' W 075°19'0 0.0
2017-Sep-21 06:40N 38°56' W 075°19'0 0.0
2017-Sep-21 06:30N 38°56' W 075°19'0 0.0
2017-Sep-21 05:40N 38°56' W 075°19'0 0.0
2017-Sep-21 05:27N 38°56' W 075°19'0 0.0
2017-Sep-21 04:10N 38°56' W 075°19'0 0.0
2017-Sep-21 03:55N 38°56' W 075°19'0 0.0
2017-Sep-21 03:30N 38°56' W 075°19'0 0.0
2017-Sep-21 02:59N 38°56' W 075°19'0 0.0
2017-Sep-21 02:30N 38°56' W 075°19'0 0.0
2017-Sep-21 02:00N 38°56' W 075°19'0 0.0
2017-Sep-21 01:30N 38°56' W 075°19'0 0.0
2017-Sep-21 01:00N 38°56' W 075°19'0 0.0
2017-Sep-20 23:07N 38°56' W 075°19'1 4.6
2017-Sep-20 23:00N 38°57' W 075°18'7 0.7
2017-Sep-20 12:02N 38°56' W 075°09'320.5
2017-Sep-20 11:54N 38°57' W 075°12'5 0.9
2017-Sep-20 06:38N 38°57' W 075°19'320.9
2017-Sep-20 06:30N 38°56' W 075°16'4 3.1
2017-Sep-20 05:17N 38°54' W 075°12'7 2.9
2017-Sep-20 03:04N 38°56' W 075°19'0 8.0
2017-Sep-20 03:00N 38°57' W 075°19'1 1.1
2017-Sep-20 02:17N 38°56' W 075°18'1 3.1
2017-Sep-20 02:00N 38°56' W 075°19'0 0.0
2017-Sep-20 01:25N 38°56' W 075°19'0 0.0
2017-Sep-20 00:58N 38°56' W 075°19'0 0.0
2017-Sep-19 23:00N 38°56' W 075°19'0 0.0
2017-Sep-19 22:17N 38°56' W 075°19'1 0.2
2017-Sep-19 18:25N 38°56' W 075°18'1 0.1
2017-Sep-19 08:51N 38°56' W 075°19'0 0.0
2017-Sep-19 05:25N 38°56' W 075°19'0 0.0
2017-Sep-19 04:40N 38°56' W 075°19'0 0.0
2017-Sep-19 04:11N 38°56' W 075°19'0 0.6
2017-Sep-19 03:24N 38°57' W 075°19'512.8
2017-Sep-19 03:00N 38°58' W 075°12'5 7.9
2017-Sep-19 02:22N 38°57' W 075°18'1 0.2
2017-Sep-18 23:44N 38°56' W 075°19'0 0.3
2017-Sep-18 23:21N 38°56' W 075°19'1016.1
2017-Sep-18 22:43N 38°54' W 075°07'720.6
2017-Sep-18 22:23N 38°57' W 075°14'4 8.3
2017-Sep-18 21:57N 38°56' W 075°19'4 1.3
2017-Sep-18 19:10N 38°57' W 075°15'4 1.2
2017-Sep-18 16:06N 38°56' W 075°19'0 0.0
2017-Sep-18 15:54N 38°56' W 075°19'7 2.9
2017-Sep-18 13:39N 38°56' W 075°11'621.7
2017-Sep-18 13:24N 38°56' W 075°18'1 2.3
2017-Sep-18 12:59N 38°56' W 075°19'0 0.0
2017-Sep-18 12:29N 38°56' W 075°19'0 0.0
2017-Sep-18 12:00N 38°56' W 075°19'0 0.0
2017-Sep-18 11:31N 38°56' W 075°19'0 0.0
2017-Sep-18 11:00N 38°56' W 075°19'0 0.0
2017-Sep-18 10:31N 38°56' W 075°19'8 2.6
2017-Sep-18 07:31N 38°53' W 075°10'222.9
2017-Sep-18 07:26N 38°54' W 075°12'6 2.1
2017-Sep-18 04:38N 38°56' W 075°19'0 0.0
2017-Sep-18 04:03N 38°56' W 075°19'0 0.0
2017-Sep-18 03:58N 38°56' W 075°19'0 0.0
2017-Sep-18 03:24N 38°56' W 075°19'0 0.0
2017-Sep-18 02:57N 38°56' W 075°19'0 0.0
2017-Sep-18 02:28N 38°56' W 075°19'0 0.0
2017-Sep-18 01:57N 38°56' W 075°19'0 0.0
2017-Sep-18 01:29N 38°56' W 075°19'0 0.0
2017-Sep-18 00:58N 38°56' W 075°19'0 0.0
2017-Sep-18 00:25N 38°56' W 075°19'0 0.0
2017-Sep-17 23:59N 38°56' W 075°19'0 0.0
2017-Sep-17 23:30N 38°56' W 075°19'0 0.0
2017-Sep-17 22:56N 38°56' W 075°19'7 0.9
2017-Sep-17 14:31N 38°56' W 075°10'0 0.1
2017-Sep-17 14:07N 38°56' W 075°10'214.8
2017-Sep-17 14:00N 38°56' W 075°12'5 4.1
2017-Sep-17 12:40N 38°56' W 075°19'0 0.0
2017-Sep-17 12:29N 38°56' W 075°19'0 0.0
2017-Sep-17 12:00N 38°56' W 075°19'0 0.0
2017-Sep-17 11:30N 38°56' W 075°19'0 0.0
2017-Sep-17 11:00N 38°56' W 075°19'0 0.0
2017-Sep-17 10:28N 38°56' W 075°19'0 0.0
2017-Sep-17 09:57N 38°56' W 075°19'0 0.0
2017-Sep-17 09:30N 38°56' W 075°19'0 0.0
2017-Sep-17 08:58N 38°56' W 075°19'0 0.0
2017-Sep-17 08:30N 38°56' W 075°19'0 0.0
2017-Sep-17 08:00N 38°56' W 075°19'0 0.0
2017-Sep-17 07:25N 38°56' W 075°19'0 0.0
2017-Sep-17 07:01N 38°56' W 075°19'0 0.0
2017-Sep-17 06:31N 38°56' W 075°19'0 0.0
2017-Sep-17 06:01N 38°56' W 075°19'0 0.0
2017-Sep-17 05:31N 38°56' W 075°19'0 0.0
2017-Sep-17 05:00N 38°56' W 075°19'0 0.0
2017-Sep-17 04:30N 38°56' W 075°19'0 0.0
2017-Sep-17 04:00N 38°56' W 075°19'0 0.0
2017-Sep-17 03:31N 38°56' W 075°19'0 0.0
2017-Sep-17 03:00N 38°56' W 075°19'0 0.0
2017-Sep-17 02:30N 38°56' W 075°19'0 0.0
2017-Sep-17 02:00N 38°56' W 075°19'0 0.0
2017-Sep-17 01:31N 38°56' W 075°19'0 0.0
2017-Sep-17 01:01N 38°56' W 075°19'0 0.0
2017-Sep-17 00:30N 38°56' W 075°19'0 0.0
2017-Sep-17 00:01N 38°56' W 075°19'0 0.0
2017-Sep-16 23:30N 38°56' W 075°19'0 0.0
2017-Sep-16 23:00N 38°56' W 075°19'0 0.0
2017-Sep-16 22:30N 38°56' W 075°19'0 0.0
2017-Sep-16 22:00N 38°56' W 075°19'0 0.0
2017-Sep-16 21:30N 38°56' W 075°19'0 0.0
2017-Sep-16 21:00N 38°56' W 075°19'0 0.0
2017-Sep-16 20:30N 38°56' W 075°19'0 0.0
2017-Sep-16 19:55N 38°56' W 075°19'0 0.0
2017-Sep-16 18:42N 38°56' W 075°19'0 0.0
2017-Sep-16 18:27N 38°56' W 075°19'0 0.0
2017-Sep-16 17:51N 38°56' W 075°19'0 0.0
2017-Sep-16 17:30N 38°56' W 075°19'0 0.0
2017-Sep-16 17:00N 38°56' W 075°19'0 0.0
2017-Sep-16 16:27N 38°56' W 075°19'0 0.0
2017-Sep-16 16:00N 38°56' W 075°19'0 0.0
2017-Sep-16 15:30N 38°56' W 075°19'0 0.0
2017-Sep-16 15:00N 38°56' W 075°19'0 0.0
2017-Sep-16 14:30N 38°56' W 075°19'0 0.0
2017-Sep-16 14:00N 38°56' W 075°19'0 0.0
2017-Sep-16 13:30N 38°56' W 075°19'0 0.0
2017-Sep-16 13:00N 38°56' W 075°19'0 0.0
2017-Sep-16 12:30N 38°56' W 075°19'0 0.0
2017-Sep-16 12:00N 38°56' W 075°19'0 0.0
2017-Sep-16 11:30N 38°56' W 075°19'0 0.0
2017-Sep-16 11:01N 38°56' W 075°19'0 0.0
2017-Sep-16 10:31N 38°56' W 075°19'0 0.0
2017-Sep-16 10:01N 38°56' W 075°19'0 0.0
2017-Sep-16 09:31N 38°56' W 075°19'0 0.0
2017-Sep-16 09:00N 38°56' W 075°19'0 0.0
2017-Sep-16 08:31N 38°56' W 075°19'0 0.0
2017-Sep-16 08:00N 38°56' W 075°19'0 0.0
2017-Sep-16 07:30N 38°56' W 075°19'0 0.0
2017-Sep-16 07:00N 38°56' W 075°19'0 0.0
2017-Sep-16 06:31N 38°56' W 075°19'0 0.0
2017-Sep-16 06:01N 38°56' W 075°19'0 0.0
2017-Sep-16 05:31N 38°56' W 075°19'0 0.0
2017-Sep-16 05:01N 38°56' W 075°19'0 0.0
2017-Sep-16 04:30N 38°56' W 075°19'0 0.0
2017-Sep-16 03:49N 38°56' W 075°19'0 0.0
2017-Sep-16 03:30N 38°56' W 075°19'0 0.0
2017-Sep-16 03:00N 38°56' W 075°19'0 0.0
2017-Sep-16 01:47N 38°56' W 075°19'0 0.0
2017-Sep-16 01:27N 38°56' W 075°19'0 0.0
2017-Sep-16 00:50N 38°56' W 075°19'0 0.0
2017-Sep-16 00:30N 38°56' W 075°19'0 0.0
2017-Sep-15 23:53N 38°56' W 075°19'0 0.0
2017-Sep-15 23:28N 38°56' W 075°19'0 0.0
2017-Sep-15 23:00N 38°56' W 075°19'0 0.0
2017-Sep-15 22:30N 38°56' W 075°19'0 0.0
2017-Sep-15 21:24N 38°56' W 075°19'6 4.1
2017-Sep-15 19:52N 38°57' W 075°11'6 8.9
2017-Sep-15 19:14N 38°56' W 075°18'6 2.7
2017-Sep-15 16:49N 38°56' W 075°10'1 4.2
2017-Sep-15 16:28N 38°57' W 075°11'0 0.2
2017-Sep-15 16:00N 38°57' W 075°11'1 2.2
2017-Sep-15 15:30N 38°57' W 075°12'5 9.5
2017-Sep-15 15:00N 38°57' W 075°18'1 0.2
2017-Sep-15 11:45N 38°56' W 075°19'0 0.0
2017-Sep-15 11:30N 38°56' W 075°19'0 0.0
2017-Sep-15 11:00N 38°56' W 075°19'0 0.0
2017-Sep-15 10:25N 38°56' W 075°19'0 0.0
2017-Sep-15 10:01N 38°56' W 075°19'0 0.0
2017-Sep-15 09:31N 38°56' W 075°19'0 0.0
2017-Sep-15 09:00N 38°56' W 075°19'0 0.0
2017-Sep-15 08:30N 38°56' W 075°19'0 0.0
2017-Sep-15 08:01N 38°56' W 075°19'0 0.0
2017-Sep-15 07:30N 38°56' W 075°19'0 0.0
2017-Sep-15 07:01N 38°56' W 075°19'0 0.0
2017-Sep-15 06:30N 38°56' W 075°19'0 0.0
2017-Sep-15 06:00N 38°56' W 075°19'0 0.0
2017-Sep-15 05:30N 38°56' W 075°19'0 0.0
2017-Sep-15 05:00N 38°56' W 075°19'0 0.0
2017-Sep-15 04:30N 38°56' W 075°19'0 0.0
2017-Sep-15 04:00N 38°56' W 075°19'0 0.0
2017-Sep-15 03:30N 38°56' W 075°19'0 0.0
2017-Sep-14 14:20N 38°56' W 075°19'0 0.0
2017-Sep-14 13:53N 38°56' W 075°19'0 0.0
2017-Sep-14 13:26N 38°56' W 075°19'0 0.0
2017-Sep-14 12:46N 38°56' W 075°19'0 0.0
2017-Sep-14 12:22N 38°56' W 075°19'0 0.0
2017-Sep-14 12:01N 38°56' W 075°19'0 0.0
2017-Sep-14 11:19N 38°56' W 075°19'0 0.0
2017-Sep-14 10:56N 38°56' W 075°19'0 0.0
2017-Sep-14 10:30N 38°56' W 075°19'0 0.0
2017-Sep-14 10:00N 38°56' W 075°19'0 0.0
2017-Sep-14 09:30N 38°56' W 075°19'0 0.0
2017-Sep-14 09:01N 38°56' W 075°19'0 0.0
2017-Sep-14 08:31N 38°56' W 075°19'0 0.0
2017-Sep-14 08:01N 38°56' W 075°19'0 0.0
2017-Sep-14 07:31N 38°56' W 075°19'0 0.0
2017-Sep-14 07:01N 38°56' W 075°19'0 0.0
2017-Sep-14 06:30N 38°56' W 075°19'0 0.0
2017-Sep-14 06:01N 38°56' W 075°19'0 0.0
2017-Sep-14 05:30N 38°56' W 075°19'0 0.0
2017-Sep-14 05:01N 38°56' W 075°19'0 0.0
2017-Sep-14 04:30N 38°56' W 075°19'0 0.0
2017-Sep-14 04:01N 38°56' W 075°19'0 0.0
2017-Sep-14 03:22N 38°56' W 075°19'0 0.0
2017-Sep-14 03:00N 38°56' W 075°19'0 0.0
2017-Sep-14 02:30N 38°56' W 075°19'0 0.0
2017-Sep-14 02:00N 38°56' W 075°19'0 0.0
2017-Sep-14 01:29N 38°56' W 075°19'0 0.0
2017-Sep-14 01:00N 38°56' W 075°19'0 0.0
2017-Sep-14 00:30N 38°56' W 075°19'0 0.0
2017-Sep-14 00:00N 38°56' W 075°19'0 0.0
2017-Sep-13 23:30N 38°56' W 075°19'0 0.0
2017-Sep-13 22:54N 38°56' W 075°19'0 0.0
2017-Sep-13 22:30N 38°56' W 075°19'0 0.0
2017-Sep-13 22:00N 38°56' W 075°19'0 0.0
2017-Sep-13 21:19N 38°56' W 075°19'0 0.0
2017-Sep-13 20:59N 38°56' W 075°19'0 0.0
2017-Sep-13 20:22N 38°56' W 075°19'0 0.0
2017-Sep-13 19:58N 38°56' W 075°19'0 0.0
2017-Sep-13 18:36N 38°56' W 075°19'0 0.0
2017-Sep-13 18:20N 38°56' W 075°19'0 0.0
2017-Sep-13 15:22N 38°56' W 075°19'0 0.0
2017-Sep-13 14:44N 38°56' W 075°19'1 2.5
2017-Sep-13 14:30N 38°57' W 075°18'1015.7
2017-Sep-13 13:53N 38°53' W 075°07'615.1
2017-Sep-13 13:30N 38°57' W 075°11'6 9.3
2017-Sep-13 12:51N 38°56' W 075°19'0 0.0
2017-Sep-13 12:30N 38°56' W 075°19'0 0.0
2017-Sep-13 11:59N 38°56' W 075°19'0 0.0
2017-Sep-13 11:30N 38°56' W 075°19'0 0.0
2017-Sep-13 11:00N 38°56' W 075°19'0 0.0
2017-Sep-13 10:30N 38°56' W 075°19'0 0.0
2017-Sep-13 09:59N 38°56' W 075°19'0 0.0
2017-Sep-13 09:30N 38°56' W 075°19'0 0.0
2017-Sep-13 09:00N 38°56' W 075°19'0 0.0
2017-Sep-13 08:31N 38°56' W 075°19'0 0.0
2017-Sep-13 08:00N 38°56' W 075°19'0 0.0
2017-Sep-13 07:31N 38°56' W 075°19'0 0.0
2017-Sep-13 07:01N 38°56' W 075°19'0 0.0
2017-Sep-13 06:31N 38°56' W 075°19'0 0.0
2017-Sep-13 06:00N 38°56' W 075°19'0 0.0
2017-Sep-13 05:30N 38°56' W 075°19'0 0.0
2017-Sep-13 05:00N 38°56' W 075°19'0 0.0
2017-Sep-13 04:31N 38°56' W 075°19'0 0.0
2017-Sep-13 04:01N 38°56' W 075°19'0 0.0
2017-Sep-13 03:30N 38°56' W 075°19'0 0.0
2017-Sep-13 03:00N 38°56' W 075°19'0 0.0
2017-Sep-13 02:30N 38°56' W 075°19'0 0.0
2017-Sep-13 02:00N 38°56' W 075°19'0 0.0
2017-Sep-13 01:31N 38°56' W 075°19'0 0.0
2017-Sep-13 01:00N 38°56' W 075°19'0 0.0
2017-Sep-13 00:30N 38°56' W 075°19'0 0.0
2017-Sep-12 23:55N 38°56' W 075°19'0 0.0
2017-Sep-12 23:30N 38°56' W 075°19'0 0.0
2017-Sep-12 22:57N 38°56' W 075°19'0 0.0
2017-Sep-12 22:17N 38°56' W 075°19'0 0.0
2017-Sep-12 22:00N 38°56' W 075°19'0 0.0
2017-Sep-12 21:12N 38°56' W 075°19'0 0.0
2017-Sep-12 20:59N 38°56' W 075°19'0 0.0
2017-Sep-12 20:03N 38°56' W 075°19'0 0.0
2017-Sep-12 20:00N 38°56' W 075°19'0 0.0
2017-Sep-12 19:25N 38°56' W 075°19'0 0.0
2017-Sep-12 19:00N 38°56' W 075°19'0 0.0
2017-Sep-12 18:28N 38°56' W 075°19'0 0.0
2017-Sep-12 18:00N 38°56' W 075°19'0 0.0
2017-Sep-12 17:30N 38°56' W 075°19'0 0.0
2017-Sep-12 16:48N 38°56' W 075°19'0 0.0
2017-Sep-12 16:28N 38°56' W 075°19'0 0.0
2017-Sep-12 15:59N 38°56' W 075°19'0 0.0
2017-Sep-12 15:30N 38°56' W 075°19'0 0.0
2017-Sep-12 14:52N 38°56' W 075°19'0 0.0
2017-Sep-12 14:00N 38°56' W 075°19'0 0.0
2017-Sep-12 13:30N 38°56' W 075°19'0 0.0
2017-Sep-12 13:00N 38°56' W 075°19'0 0.0
2017-Sep-12 12:29N 38°56' W 075°19'0 0.0
2017-Sep-12 09:15N 38°56' W 075°19'0 0.0
2017-Sep-12 09:00N 38°56' W 075°19'0 0.0
2017-Sep-12 08:30N 38°56' W 075°19'0 0.0
2017-Sep-12 07:57N 38°56' W 075°19'0 0.0
2017-Sep-12 07:29N 38°56' W 075°19'0 0.0
2017-Sep-12 06:53N 38°56' W 075°19'0 0.0
2017-Sep-12 06:30N 38°56' W 075°19'0 0.0
2017-Sep-12 06:00N 38°56' W 075°19'0 0.0
2017-Sep-12 05:07N 38°56' W 075°19'0 0.0
2017-Sep-12 05:00N 38°56' W 075°19'0 0.0
2017-Sep-12 04:30N 38°56' W 075°19'0 0.0
2017-Sep-12 04:00N 38°56' W 075°19'0 0.0
2017-Sep-12 03:18N 38°56' W 075°19'0 0.0
2017-Sep-12 02:58N 38°56' W 075°19'0 0.0
2017-Sep-12 02:25N 38°56' W 075°19'0 0.0
2017-Sep-12 02:00N 38°56' W 075°19'0 0.0
2017-Sep-12 01:30N 38°56' W 075°19'0 0.0
2017-Sep-12 00:47N 38°56' W 075°19'0 0.0
2017-Sep-11 23:28N 38°56' W 075°19'1 0.1
2017-Sep-11 15:14N 38°56' W 075°18'1 1.1
2017-Sep-11 14:26N 38°56' W 075°19'  
Track history (hours):
 
Tides and Currents Weather Stations Pressure Air Temp Water Temp Dewpoint Dewpoint Depression Visibility Wind Speed Wind Dir Waves Ship Positions

Big Stone Express

Owner: DELAWARE BAY LAUNCH SERVICE, MILFORD, DE. More information available from US FCC via Universal Licensing System and Coast Guard Vessel Documentation Center.

Last reported at 2017-Sep-21 14:02 UTC. Time now 2017-Sep-21 15:54 UTC.
Position N 38°56' W 075°19'.

Length 25 m; draft 2 m.

MMSI: 36708110.

Date/timePositionNaut miles runAvg speedWind from/ knotsBaromVisibWave heightAir tempDewpointWater temp
2017-Sep-21 14:02N 38°56' W 075°19'0 0.0
2017-Sep-21 13:51N 38°56' W 075°19'0 0.0
2017-Sep-21 13:23N 38°56' W 075°19'0 0.0
2017-Sep-21 13:00N 38°56' W 075°19'0 0.0
2017-Sep-21 12:30N 38°56' W 075°19'0 0.0
2017-Sep-21 12:00N 38°56' W 075°19'0 0.0
2017-Sep-21 11:30N 38°56' W 075°19'0 0.0
2017-Sep-21 11:00N 38°56' W 075°19'0 0.0
2017-Sep-21 10:30N 38°56' W 075°19'0 0.0
2017-Sep-21 10:00N 38°56' W 075°19'0 0.0
2017-Sep-21 09:30N 38°56' W 075°19'0 0.0
2017-Sep-21 09:00N 38°56' W 075°19'0 0.0
2017-Sep-21 08:21N 38°56' W 075°19'0 0.0
2017-Sep-21 08:00N 38°56' W 075°19'0 0.0
2017-Sep-21 07:22N 38°56' W 075°19'0 0.0
2017-Sep-21 06:40N 38°56' W 075°19'0 0.0
2017-Sep-21 06:30N 38°56' W 075°19'0 0.0
2017-Sep-21 05:40N 38°56' W 075°19'0 0.0
2017-Sep-21 05:27N 38°56' W 075°19'0 0.0
2017-Sep-21 04:10N 38°56' W 075°19'0 0.0
2017-Sep-21 03:55N 38°56' W 075°19'0 0.0
2017-Sep-21 03:30N 38°56' W 075°19'0 0.0
2017-Sep-21 02:59N 38°56' W 075°19'0 0.0
2017-Sep-21 02:30N 38°56' W 075°19'0 0.0
2017-Sep-21 02:00N 38°56' W 075°19'0 0.0
2017-Sep-21 01:30N 38°56' W 075°19'0 0.0
2017-Sep-21 01:00N 38°56' W 075°19'0 0.0
2017-Sep-20 23:07N 38°56' W 075°19'1 4.6
2017-Sep-20 23:00N 38°57' W 075°18'7 0.7
2017-Sep-20 12:02N 38°56' W 075°09'320.5
2017-Sep-20 11:54N 38°57' W 075°12'5 0.9
2017-Sep-20 06:38N 38°57' W 075°19'320.9
2017-Sep-20 06:30N 38°56' W 075°16'4 3.1
2017-Sep-20 05:17N 38°54' W 075°12'7 2.9
2017-Sep-20 03:04N 38°56' W 075°19'0 8.0
2017-Sep-20 03:00N 38°57' W 075°19'1 1.1
2017-Sep-20 02:17N 38°56' W 075°18'1 3.1
2017-Sep-20 02:00N 38°56' W 075°19'0 0.0
2017-Sep-20 01:25N 38°56' W 075°19'0 0.0
2017-Sep-20 00:58N 38°56' W 075°19'0 0.0
2017-Sep-19 23:00N 38°56' W 075°19'0 0.0
2017-Sep-19 22:17N 38°56' W 075°19'1 0.2
2017-Sep-19 18:25N 38°56' W 075°18'1 0.1
2017-Sep-19 08:51N 38°56' W 075°19'0 0.0
2017-Sep-19 05:25N 38°56' W 075°19'0 0.0
2017-Sep-19 04:40N 38°56' W 075°19'0 0.0
2017-Sep-19 04:11N 38°56' W 075°19'0 0.6
2017-Sep-19 03:24N 38°57' W 075°19'512.8
2017-Sep-19 03:00N 38°58' W 075°12'5 7.9
2017-Sep-19 02:22N 38°57' W 075°18'1 0.2
2017-Sep-18 23:44N 38°56' W 075°19'0 0.3
2017-Sep-18 23:21N 38°56' W 075°19'1016.1
2017-Sep-18 22:43N 38°54' W 075°07'720.6
2017-Sep-18 22:23N 38°57' W 075°14'4 8.3
2017-Sep-18 21:57N 38°56' W 075°19'4 1.3
2017-Sep-18 19:10N 38°57' W 075°15'4 1.2
2017-Sep-18 16:06N 38°56' W 075°19'0 0.0
2017-Sep-18 15:54N 38°56' W 075°19'7 2.9
2017-Sep-18 13:39N 38°56' W 075°11'621.7
2017-Sep-18 13:24N 38°56' W 075°18'1 2.3
2017-Sep-18 12:59N 38°56' W 075°19'0 0.0
2017-Sep-18 12:29N 38°56' W 075°19'0 0.0
2017-Sep-18 12:00N 38°56' W 075°19'0 0.0
2017-Sep-18 11:31N 38°56' W 075°19'0 0.0
2017-Sep-18 11:00N 38°56' W 075°19'0 0.0
2017-Sep-18 10:31N 38°56' W 075°19'8 2.6
2017-Sep-18 07:31N 38°53' W 075°10'222.9
2017-Sep-18 07:26N 38°54' W 075°12'6 2.1
2017-Sep-18 04:38N 38°56' W 075°19'0 0.0
2017-Sep-18 04:03N 38°56' W 075°19'0 0.0
2017-Sep-18 03:58N 38°56' W 075°19'0 0.0
2017-Sep-18 03:24N 38°56' W 075°19'0 0.0
2017-Sep-18 02:57N 38°56' W 075°19'0 0.0
2017-Sep-18 02:28N 38°56' W 075°19'0 0.0
2017-Sep-18 01:57N 38°56' W 075°19'0 0.0
2017-Sep-18 01:29N 38°56' W 075°19'0 0.0
2017-Sep-18 00:58N 38°56' W 075°19'0 0.0
2017-Sep-18 00:25N 38°56' W 075°19'0 0.0
2017-Sep-17 23:59N 38°56' W 075°19'0 0.0
2017-Sep-17 23:30N 38°56' W 075°19'0 0.0
2017-Sep-17 22:56N 38°56' W 075°19'7 0.9
2017-Sep-17 14:31N 38°56' W 075°10'0 0.1
2017-Sep-17 14:07N 38°56' W 075°10'214.8
2017-Sep-17 14:00N 38°56' W 075°12'5 4.1
2017-Sep-17 12:40N 38°56' W 075°19'0 0.0
2017-Sep-17 12:29N 38°56' W 075°19'0 0.0
2017-Sep-17 12:00N 38°56' W 075°19'0 0.0
2017-Sep-17 11:30N 38°56' W 075°19'0 0.0
2017-Sep-17 11:00N 38°56' W 075°19'0 0.0
2017-Sep-17 10:28N 38°56' W 075°19'0 0.0
2017-Sep-17 09:57N 38°56' W 075°19'0 0.0
2017-Sep-17 09:30N 38°56' W 075°19'0 0.0
2017-Sep-17 08:58N 38°56' W 075°19'0 0.0
2017-Sep-17 08:30N 38°56' W 075°19'0 0.0
2017-Sep-17 08:00N 38°56' W 075°19'0 0.0
2017-Sep-17 07:25N 38°56' W 075°19'0 0.0
2017-Sep-17 07:01N 38°56' W 075°19'0 0.0
2017-Sep-17 06:31N 38°56' W 075°19'0 0.0
2017-Sep-17 06:01N 38°56' W 075°19'0 0.0
2017-Sep-17 05:31N 38°56' W 075°19'0 0.0
2017-Sep-17 05:00N 38°56' W 075°19'0 0.0
2017-Sep-17 04:30N 38°56' W 075°19'0 0.0
2017-Sep-17 04:00N 38°56' W 075°19'0 0.0
2017-Sep-17 03:31N 38°56' W 075°19'0 0.0
2017-Sep-17 03:00N 38°56' W 075°19'0 0.0
2017-Sep-17 02:30N 38°56' W 075°19'0 0.0
2017-Sep-17 02:00N 38°56' W 075°19'0 0.0
2017-Sep-17 01:31N 38°56' W 075°19'0 0.0
2017-Sep-17 01:01N 38°56' W 075°19'0 0.0
2017-Sep-17 00:30N 38°56' W 075°19'0 0.0
2017-Sep-17 00:01N 38°56' W 075°19'0 0.0
2017-Sep-16 23:30N 38°56' W 075°19'0 0.0
2017-Sep-16 23:00N 38°56' W 075°19'0 0.0
2017-Sep-16 22:30N 38°56' W 075°19'0 0.0
2017-Sep-16 22:00N 38°56' W 075°19'0 0.0
2017-Sep-16 21:30N 38°56' W 075°19'0 0.0
2017-Sep-16 21:00N 38°56' W 075°19'0 0.0
2017-Sep-16 20:30N 38°56' W 075°19'0 0.0
2017-Sep-16 19:55N 38°56' W 075°19'0 0.0
2017-Sep-16 18:42N 38°56' W 075°19'0 0.0
2017-Sep-16 18:27N 38°56' W 075°19'0 0.0
2017-Sep-16 17:51N 38°56' W 075°19'0 0.0
2017-Sep-16 17:30N 38°56' W 075°19'0 0.0
2017-Sep-16 17:00N 38°56' W 075°19'0 0.0
2017-Sep-16 16:27N 38°56' W 075°19'0 0.0
2017-Sep-16 16:00N 38°56' W 075°19'0 0.0
2017-Sep-16 15:30N 38°56' W 075°19'0 0.0
2017-Sep-16 15:00N 38°56' W 075°19'0 0.0
2017-Sep-16 14:30N 38°56' W 075°19'0 0.0
2017-Sep-16 14:00N 38°56' W 075°19'0 0.0
2017-Sep-16 13:30N 38°56' W 075°19'0 0.0
2017-Sep-16 13:00N 38°56' W 075°19'0 0.0
2017-Sep-16 12:30N 38°56' W 075°19'0 0.0
2017-Sep-16 12:00N 38°56' W 075°19'0 0.0
2017-Sep-16 11:30N 38°56' W 075°19'0 0.0
2017-Sep-16 11:01N 38°56' W 075°19'0 0.0
2017-Sep-16 10:31N 38°56' W 075°19'0 0.0
2017-Sep-16 10:01N 38°56' W 075°19'0 0.0
2017-Sep-16 09:31N 38°56' W 075°19'0 0.0
2017-Sep-16 09:00N 38°56' W 075°19'0 0.0
2017-Sep-16 08:31N 38°56' W 075°19'0 0.0
2017-Sep-16 08:00N 38°56' W 075°19'0 0.0
2017-Sep-16 07:30N 38°56' W 075°19'0 0.0
2017-Sep-16 07:00N 38°56' W 075°19'0 0.0
2017-Sep-16 06:31N 38°56' W 075°19'0 0.0
2017-Sep-16 06:01N 38°56' W 075°19'0 0.0
2017-Sep-16 05:31N 38°56' W 075°19'0 0.0
2017-Sep-16 05:01N 38°56' W 075°19'0 0.0
2017-Sep-16 04:30N 38°56' W 075°19'0 0.0
2017-Sep-16 03:49N 38°56' W 075°19'0 0.0
2017-Sep-16 03:30N 38°56' W 075°19'0 0.0
2017-Sep-16 03:00N 38°56' W 075°19'0 0.0
2017-Sep-16 01:47N 38°56' W 075°19'0 0.0
2017-Sep-16 01:27N 38°56' W 075°19'0 0.0
2017-Sep-16 00:50N 38°56' W 075°19'0 0.0
2017-Sep-16 00:30N 38°56' W 075°19'0 0.0
2017-Sep-15 23:53N 38°56' W 075°19'0 0.0
2017-Sep-15 23:28N 38°56' W 075°19'0 0.0
2017-Sep-15 23:00N 38°56' W 075°19'0 0.0
2017-Sep-15 22:30N 38°56' W 075°19'0 0.0
2017-Sep-15 21:24N 38°56' W 075°19'6 4.1
2017-Sep-15 19:52N 38°57' W 075°11'6 8.9
2017-Sep-15 19:14N 38°56' W 075°18'6 2.7
2017-Sep-15 16:49N 38°56' W 075°10'1 4.2
2017-Sep-15 16:28N 38°57' W 075°11'0 0.2
2017-Sep-15 16:00N 38°57' W 075°11'1 2.2
2017-Sep-15 15:30N 38°57' W 075°12'5 9.5
2017-Sep-15 15:00N 38°57' W 075°18'1 0.2
2017-Sep-15 11:45N 38°56' W 075°19'0 0.0
2017-Sep-15 11:30N 38°56' W 075°19'0 0.0
2017-Sep-15 11:00N 38°56' W 075°19'0 0.0
2017-Sep-15 10:25N 38°56' W 075°19'0 0.0
2017-Sep-15 10:01N 38°56' W 075°19'0 0.0
2017-Sep-15 09:31N 38°56' W 075°19'0 0.0
2017-Sep-15 09:00N 38°56' W 075°19'0 0.0
2017-Sep-15 08:30N 38°56' W 075°19'0 0.0
2017-Sep-15 08:01N 38°56' W 075°19'0 0.0
2017-Sep-15 07:30N 38°56' W 075°19'0 0.0
2017-Sep-15 07:01N 38°56' W 075°19'0 0.0
2017-Sep-15 06:30N 38°56' W 075°19'0 0.0
2017-Sep-15 06:00N 38°56' W 075°19'0 0.0
2017-Sep-15 05:30N 38°56' W 075°19'0 0.0
2017-Sep-15 05:00N 38°56' W 075°19'0 0.0
2017-Sep-15 04:30N 38°56' W 075°19'0 0.0
2017-Sep-15 04:00N 38°56' W 075°19'0 0.0
2017-Sep-15 03:30N 38°56' W 075°19'0 0.0
2017-Sep-14 14:20N 38°56' W 075°19'0 0.0
2017-Sep-14 13:53N 38°56' W 075°19'0 0.0
2017-Sep-14 13:26N 38°56' W 075°19'0 0.0
2017-Sep-14 12:46N 38°56' W 075°19'0 0.0
2017-Sep-14 12:22N 38°56' W 075°19'0 0.0
2017-Sep-14 12:01N 38°56' W 075°19'0 0.0
2017-Sep-14 11:19N 38°56' W 075°19'0 0.0
2017-Sep-14 10:56N 38°56' W 075°19'0 0.0
2017-Sep-14 10:30N 38°56' W 075°19'0 0.0
2017-Sep-14 10:00N 38°56' W 075°19'0 0.0
2017-Sep-14 09:30N 38°56' W 075°19'0 0.0
2017-Sep-14 09:01N 38°56' W 075°19'0 0.0
2017-Sep-14 08:31N 38°56' W 075°19'0 0.0
2017-Sep-14 08:01N 38°56' W 075°19'0 0.0
2017-Sep-14 07:31N 38°56' W 075°19'0 0.0
2017-Sep-14 07:01N 38°56' W 075°19'0 0.0
2017-Sep-14 06:30N 38°56' W 075°19'0 0.0
2017-Sep-14 06:01N 38°56' W 075°19'0 0.0
2017-Sep-14 05:30N 38°56' W 075°19'0 0.0
2017-Sep-14 05:01N 38°56' W 075°19'0 0.0
2017-Sep-14 04:30N 38°56' W 075°19'0 0.0
2017-Sep-14 04:01N 38°56' W 075°19'0 0.0
2017-Sep-14 03:22N 38°56' W 075°19'0 0.0
2017-Sep-14 03:00N 38°56' W 075°19'0 0.0
2017-Sep-14 02:30N 38°56' W 075°19'0 0.0
2017-Sep-14 02:00N 38°56' W 075°19'0 0.0
2017-Sep-14 01:29N 38°56' W 075°19'0 0.0
2017-Sep-14 01:00N 38°56' W 075°19'0 0.0
2017-Sep-14 00:30N 38°56' W 075°19'0 0.0
2017-Sep-14 00:00N 38°56' W 075°19'0 0.0
2017-Sep-13 23:30N 38°56' W 075°19'0 0.0
2017-Sep-13 22:54N 38°56' W 075°19'0 0.0
2017-Sep-13 22:30N 38°56' W 075°19'0 0.0
2017-Sep-13 22:00N 38°56' W 075°19'0 0.0
2017-Sep-13 21:19N 38°56' W 075°19'0 0.0
2017-Sep-13 20:59N 38°56' W 075°19'0 0.0
2017-Sep-13 20:22N 38°56' W 075°19'0 0.0
2017-Sep-13 19:58N 38°56' W 075°19'0 0.0
2017-Sep-13 18:36N 38°56' W 075°19'0 0.0
2017-Sep-13 18:20N 38°56' W 075°19'0 0.0
2017-Sep-13 15:22N 38°56' W 075°19'0 0.0
2017-Sep-13 14:44N 38°56' W 075°19'1 2.5
2017-Sep-13 14:30N 38°57' W 075°18'1015.7
2017-Sep-13 13:53N 38°53' W 075°07'615.1
2017-Sep-13 13:30N 38°57' W 075°11'6 9.3
2017-Sep-13 12:51N 38°56' W 075°19'0 0.0
2017-Sep-13 12:30N 38°56' W 075°19'0 0.0
2017-Sep-13 11:59N 38°56' W 075°19'0 0.0
2017-Sep-13 11:30N 38°56' W 075°19'0 0.0
2017-Sep-13 11:00N 38°56' W 075°19'0 0.0
2017-Sep-13 10:30N 38°56' W 075°19'0 0.0
2017-Sep-13 09:59N 38°56' W 075°19'0 0.0
2017-Sep-13 09:30N 38°56' W 075°19'0 0.0
2017-Sep-13 09:00N 38°56' W 075°19'0 0.0
2017-Sep-13 08:31N 38°56' W 075°19'0 0.0
2017-Sep-13 08:00N 38°56' W 075°19'0 0.0
2017-Sep-13 07:31N 38°56' W 075°19'0 0.0
2017-Sep-13 07:01N 38°56' W 075°19'0 0.0
2017-Sep-13 06:31N 38°56' W 075°19'0 0.0
2017-Sep-13 06:00N 38°56' W 075°19'0 0.0
2017-Sep-13 05:30N 38°56' W 075°19'0 0.0
2017-Sep-13 05:00N 38°56' W 075°19'0 0.0
2017-Sep-13 04:31N 38°56' W 075°19'0 0.0
2017-Sep-13 04:01N 38°56' W 075°19'0 0.0
2017-Sep-13 03:30N 38°56' W 075°19'0 0.0
2017-Sep-13 03:00N 38°56' W 075°19'0 0.0
2017-Sep-13 02:30N 38°56' W 075°19'0 0.0
2017-Sep-13 02:00N 38°56' W 075°19'0 0.0
2017-Sep-13 01:31N 38°56' W 075°19'0 0.0
2017-Sep-13 01:00N 38°56' W 075°19'0 0.0
2017-Sep-13 00:30N 38°56' W 075°19'0 0.0
2017-Sep-12 23:55N 38°56' W 075°19'0 0.0
2017-Sep-12 23:30N 38°56' W 075°19'0 0.0
2017-Sep-12 22:57N 38°56' W 075°19'0 0.0
2017-Sep-12 22:17N 38°56' W 075°19'0 0.0
2017-Sep-12 22:00N 38°56' W 075°19'0 0.0
2017-Sep-12 21:12N 38°56' W 075°19'0 0.0
2017-Sep-12 20:59N 38°56' W 075°19'0 0.0
2017-Sep-12 20:03N 38°56' W 075°19'0 0.0
2017-Sep-12 20:00N 38°56' W 075°19'0 0.0
2017-Sep-12 19:25N 38°56' W 075°19'0 0.0
2017-Sep-12 19:00N 38°56' W 075°19'0 0.0
2017-Sep-12 18:28N 38°56' W 075°19'0 0.0
2017-Sep-12 18:00N 38°56' W 075°19'0 0.0
2017-Sep-12 17:30N 38°56' W 075°19'0 0.0
2017-Sep-12 16:48N 38°56' W 075°19'0 0.0
2017-Sep-12 16:28N 38°56' W 075°19'0 0.0
2017-Sep-12 15:59N 38°56' W 075°19'0 0.0
2017-Sep-12 15:30N 38°56' W 075°19'0 0.0
2017-Sep-12 14:52N 38°56' W 075°19'0 0.0
2017-Sep-12 14:00N 38°56' W 075°19'0 0.0
2017-Sep-12 13:30N 38°56' W 075°19'0 0.0
2017-Sep-12 13:00N 38°56' W 075°19'0 0.0
2017-Sep-12 12:29N 38°56' W 075°19'0 0.0
2017-Sep-12 09:15N 38°56' W 075°19'0 0.0
2017-Sep-12 09:00N 38°56' W 075°19'0 0.0
2017-Sep-12 08:30N 38°56' W 075°19'0 0.0
2017-Sep-12 07:57N 38°56' W 075°19'0 0.0
2017-Sep-12 07:29N 38°56' W 075°19'0 0.0
2017-Sep-12 06:53N 38°56' W 075°19'0 0.0
2017-Sep-12 06:30N 38°56' W 075°19'0 0.0
2017-Sep-12 06:00N 38°56' W 075°19'0 0.0
2017-Sep-12 05:07N 38°56' W 075°19'0 0.0
2017-Sep-12 05:00N 38°56' W 075°19'0 0.0
2017-Sep-12 04:30N 38°56' W 075°19'0 0.0
2017-Sep-12 04:00N 38°56' W 075°19'0 0.0
2017-Sep-12 03:18N 38°56' W 075°19'0 0.0
2017-Sep-12 02:58N 38°56' W 075°19'0 0.0
2017-Sep-12 02:25N 38°56' W 075°19'0 0.0
2017-Sep-12 02:00N 38°56' W 075°19'0 0.0
2017-Sep-12 01:30N 38°56' W 075°19'0 0.0
2017-Sep-12 00:47N 38°56' W 075°19'0 0.0
2017-Sep-11 23:28N 38°56' W 075°19'1 0.1
2017-Sep-11 15:14N 38°56' W 075°18'1 1.1
2017-Sep-11 14:26N 38°56' W 075°19'  

Dump ship's entire track history